createdAt,value
2023-04-11T00:00:54.019Z,19.0762
2023-04-11T00:01:55.684Z,19.0619
2023-04-11T00:02:57.621Z,19.0727
2023-04-11T00:03:59.146Z,18.9581
2023-04-11T00:05:00.739Z,18.8969
2023-04-11T00:06:02.279Z,18.9238
2023-04-11T00:07:03.902Z,19.0069
2023-04-11T00:08:05.642Z,19.0104
2023-04-11T00:09:07.216Z,19.0100
2023-04-11T00:10:08.871Z,18.9500
2023-04-11T00:11:10.649Z,18.8746
2023-04-11T00:12:12.180Z,18.8469
2023-04-11T00:13:13.935Z,18.8819
2023-04-11T00:14:16.097Z,18.9508
2023-04-11T00:15:17.141Z,18.9912
2023-04-11T00:16:18.851Z,18.9185
2023-04-11T00:17:20.471Z,18.6608
2023-04-11T00:18:22.165Z,18.5735
2023-04-11T00:19:23.770Z,18.6808
2023-04-11T00:20:25.449Z,18.8731
2023-04-11T00:21:27.126Z,19.0515
2023-04-11T00:22:28.744Z,19.1312
2023-04-11T00:23:31.292Z,19.1023
2023-04-11T00:24:32.073Z,19.0769
2023-04-11T00:25:33.796Z,18.9912
2023-04-11T00:26:35.370Z,18.9031
2023-04-11T00:27:37.019Z,18.8465
2023-04-11T00:28:38.766Z,18.8800
2023-04-11T00:29:40.417Z,18.9392
2023-04-11T00:30:42.031Z,18.9904
2023-04-11T00:31:43.742Z,19.0200
2023-04-11T00:32:45.366Z,18.9865
2023-04-11T00:33:47.058Z,18.9158
2023-04-11T00:34:48.714Z,18.8835
2023-04-11T00:35:50.364Z,18.9073
2023-04-11T00:36:52.034Z,18.9308
2023-04-11T00:37:53.576Z,18.9081
2023-04-11T00:38:56.001Z,18.8977
2023-04-11T00:39:57.013Z,18.8785
2023-04-11T00:40:58.625Z,18.8438
2023-04-11T00:42:00.321Z,18.8300
2023-04-11T00:43:02.045Z,18.8946
2023-04-11T00:44:03.638Z,18.8942
2023-04-11T00:45:05.264Z,18.8277
2023-04-11T00:46:07.030Z,18.7323
2023-04-11T00:47:08.675Z,18.5354
2023-04-11T00:48:10.227Z,18.4758
2023-04-11T00:49:11.904Z,18.6431
2023-04-11T00:50:13.558Z,18.8096
2023-04-11T00:51:15.291Z,18.9592
2023-04-11T00:52:16.857Z,19.0462
2023-04-11T00:53:18.548Z,19.0188
2023-04-11T00:54:20.213Z,18.9785
2023-04-11T00:55:21.800Z,18.9069
2023-04-11T00:56:23.432Z,18.8365
2023-04-11T00:57:25.155Z,18.8396
2023-04-11T00:58:26.790Z,18.8415
2023-04-11T00:59:28.395Z,18.8781
2023-04-11T01:00:30.176Z,18.8996
2023-04-11T01:01:32.801Z,18.9400
2023-04-11T01:02:33.446Z,18.9273
2023-04-11T01:03:35.160Z,18.8812
2023-04-11T01:04:36.770Z,18.7808
2023-04-11T01:05:38.401Z,18.7777
2023-04-11T01:06:40.032Z,18.7735
2023-04-11T01:07:41.678Z,18.8415
2023-04-11T01:08:43.304Z,18.8165
2023-04-11T01:09:45.006Z,18.8554
2023-04-11T01:10:46.634Z,18.9065
2023-04-11T01:11:48.266Z,18.9073
2023-04-11T01:12:49.906Z,18.9088
2023-04-11T01:13:51.592Z,18.8669
2023-04-11T01:14:53.267Z,18.7735
2023-04-11T01:15:54.927Z,18.7931
2023-04-11T01:16:56.699Z,18.8288
2023-04-11T01:17:58.258Z,18.8465
2023-04-11T01:18:59.901Z,18.8438
2023-04-11T01:20:01.766Z,18.8131
2023-04-11T01:21:03.177Z,18.7958
2023-04-11T01:22:04.755Z,18.7827
2023-04-11T01:23:05.306Z,18.7650
2023-04-11T01:24:08.139Z,18.7782
2023-04-11T01:25:10.247Z,18.8000
2023-04-11T01:26:11.518Z,18.7623
2023-04-11T01:27:13.170Z,18.6185
2023-04-11T01:28:14.891Z,18.6077
2023-04-11T01:29:16.409Z,18.7469
2023-04-11T01:30:18.237Z,18.8812
2023-04-11T01:31:19.728Z,18.9892
2023-04-11T01:32:21.436Z,19.0377
2023-04-11T01:33:23.063Z,18.9715
2023-04-11T01:34:24.755Z,18.9335
2023-04-11T01:35:27.212Z,18.8954
2023-04-11T01:36:28.023Z,18.7854
2023-04-11T01:37:29.590Z,18.7854
2023-04-11T01:38:31.290Z,18.7885
2023-04-11T01:39:33.011Z,18.7958
2023-04-11T01:40:34.649Z,18.8108
2023-04-11T01:41:36.251Z,18.8408
2023-04-11T01:42:38.001Z,18.8812
2023-04-11T01:43:39.529Z,18.8862
2023-04-11T01:44:41.200Z,18.8881
2023-04-11T01:45:42.881Z,18.8569
2023-04-11T01:46:44.561Z,18.8050
2023-04-11T01:47:47.046Z,18.7415
2023-04-11T01:48:47.945Z,18.7604
2023-04-11T01:49:49.485Z,18.7481
2023-04-11T01:50:51.152Z,18.7619
2023-04-11T01:51:52.795Z,18.7577
2023-04-11T01:52:54.524Z,18.7000
2023-04-11T01:53:56.123Z,18.7269
2023-04-11T01:54:58.291Z,18.7146
2023-04-11T01:55:59.416Z,18.6700
2023-04-11T01:57:01.016Z,18.7385
2023-04-11T01:58:02.737Z,18.7673
2023-04-11T01:59:04.393Z,18.7992
2023-04-11T02:00:06.706Z,18.7919
2023-04-11T02:01:07.859Z,18.7946
2023-04-11T02:02:09.471Z,18.7773
2023-04-11T02:03:11.121Z,18.7665
2023-04-11T02:04:12.825Z,18.7377
2023-04-11T02:05:14.344Z,18.6565
2023-04-11T02:06:16.598Z,18.5869
2023-04-11T02:07:17.658Z,18.7058
2023-04-11T02:08:19.218Z,18.8704
2023-04-11T02:09:20.892Z,18.9746
2023-04-11T02:10:22.533Z,19.0327
2023-04-11T02:11:24.322Z,18.9892
2023-04-11T02:12:25.870Z,18.9238
2023-04-11T02:13:27.416Z,18.8342
2023-04-11T02:14:29.133Z,18.7600
2023-04-11T02:15:30.934Z,18.7331
2023-04-11T02:16:32.536Z,18.7681
2023-04-11T02:17:34.226Z,18.7962
2023-04-11T02:18:35.728Z,18.7988
2023-04-11T02:19:37.457Z,18.8742
2023-04-11T02:20:39.140Z,18.9008
2023-04-11T02:21:40.790Z,18.9265
2023-04-11T02:22:42.458Z,18.9246
2023-04-11T02:23:44.147Z,18.8269
2023-04-11T02:24:45.741Z,18.8046
2023-04-11T02:25:48.224Z,18.7992
2023-04-11T02:26:49.148Z,18.8092
2023-04-11T02:27:50.803Z,18.8115
2023-04-11T02:28:52.462Z,18.8127
2023-04-11T02:29:54.031Z,18.7981
2023-04-11T02:30:55.732Z,18.8204
2023-04-11T02:31:57.374Z,18.8023
2023-04-11T02:32:59.028Z,18.7888
2023-04-11T02:34:00.635Z,18.7615
2023-04-11T02:35:02.320Z,18.7742
2023-04-11T02:36:04.110Z,18.7827
2023-04-11T02:37:05.747Z,18.6469
2023-04-11T02:38:07.189Z,18.5042
2023-04-11T02:39:08.912Z,18.5242
2023-04-11T02:40:10.495Z,18.6935
2023-04-11T02:41:12.190Z,18.8250
2023-04-11T02:42:14.583Z,18.8888
2023-04-11T02:43:15.601Z,18.9450
2023-04-11T02:44:17.207Z,18.8835
2023-04-11T02:45:18.881Z,18.8412
2023-04-11T02:46:20.443Z,18.7742
2023-04-11T02:47:22.362Z,18.7331
2023-04-11T02:48:23.861Z,18.7373
2023-04-11T02:49:25.428Z,18.7419
2023-04-11T02:50:27.124Z,18.7996
2023-04-11T02:51:28.816Z,18.8958
2023-04-11T02:52:30.444Z,18.9477
2023-04-11T02:53:32.075Z,18.9815
2023-04-11T02:54:33.806Z,18.9919
2023-04-11T02:55:35.422Z,19.3042
2023-04-11T02:56:37.019Z,19.7504
2023-04-11T02:57:38.648Z,20.0546
2023-04-11T02:58:40.324Z,20.3092
2023-04-11T02:59:41.942Z,20.4981
2023-04-11T03:00:43.644Z,20.6046
2023-04-11T03:01:45.351Z,20.6058
2023-04-11T03:02:46.933Z,20.5373
2023-04-11T03:03:48.595Z,20.5212
2023-04-11T03:04:50.207Z,20.5227
2023-04-11T03:05:51.785Z,20.4400
2023-04-11T03:06:53.438Z,20.4115
2023-04-11T03:07:55.237Z,20.4450
2023-04-11T03:08:57.489Z,20.4588
2023-04-11T03:09:58.526Z,20.4785
2023-04-11T03:11:00.082Z,20.4942
2023-04-11T03:12:01.726Z,20.4788
2023-04-11T03:13:04.312Z,20.5023
2023-04-11T03:14:05.070Z,20.5181
2023-04-11T03:15:06.738Z,20.5546
2023-04-11T03:16:08.435Z,20.5515
2023-04-11T03:17:09.986Z,20.5550
2023-04-11T03:18:11.698Z,20.5696
2023-04-11T03:19:13.423Z,20.4654
2023-04-11T03:20:14.993Z,20.4623
2023-04-11T03:21:16.620Z,20.5638
2023-04-11T03:22:18.256Z,20.6550
2023-04-11T03:23:19.963Z,20.7119
2023-04-11T03:24:21.591Z,20.7315
2023-04-11T03:25:23.335Z,20.7381
2023-04-11T03:26:24.942Z,20.7058
2023-04-11T03:27:26.547Z,20.5985
2023-04-11T03:28:29.236Z,20.6446
2023-04-11T03:29:29.905Z,20.6700
2023-04-11T03:30:31.512Z,20.7088
2023-04-11T03:31:33.195Z,20.7412
2023-04-11T03:32:34.848Z,20.7604
2023-04-11T03:33:37.387Z,20.7458
2023-04-11T03:34:38.198Z,20.6588
2023-04-11T03:35:39.887Z,20.7208
2023-04-11T03:36:41.491Z,20.7265
2023-04-11T03:37:43.076Z,20.7700
2023-04-11T03:38:44.699Z,20.7885
2023-04-11T03:39:46.477Z,20.7946
2023-04-11T03:40:48.070Z,20.7792
2023-04-11T03:41:49.738Z,20.7650
2023-04-11T03:42:51.368Z,20.7477
2023-04-11T03:43:53.013Z,20.7481
2023-04-11T03:44:54.740Z,20.7892
2023-04-11T03:45:56.380Z,20.8081
2023-04-11T03:46:58.067Z,20.8288
2023-04-11T03:47:59.660Z,20.8154
2023-04-11T03:49:01.270Z,20.8135
2023-04-11T03:50:03.291Z,20.8396
2023-04-11T03:51:04.602Z,20.8388
2023-04-11T03:52:06.216Z,20.8065
2023-04-11T03:53:07.854Z,20.7019
2023-04-11T03:54:09.514Z,20.7058
2023-04-11T03:55:11.186Z,20.7531
2023-04-11T03:56:12.822Z,20.7873
2023-04-11T03:57:14.587Z,20.8254
2023-04-11T03:58:16.168Z,20.8288
2023-04-11T03:59:17.816Z,20.8281
2023-04-11T04:00:20.139Z,20.8496
2023-04-11T04:01:21.141Z,20.8035
2023-04-11T04:02:22.957Z,20.8185
2023-04-11T04:03:24.680Z,20.8200
2023-04-11T04:04:26.262Z,20.8315
2023-04-11T04:05:27.752Z,20.8546
2023-04-11T04:06:29.370Z,20.8412
2023-04-11T04:07:31.077Z,20.8300
2023-04-11T04:08:32.690Z,20.8115
2023-04-11T04:09:34.431Z,20.8269
2023-04-11T04:10:35.973Z,20.7842
2023-04-11T04:11:37.665Z,20.8012
2023-04-11T04:12:39.362Z,20.7969
2023-04-11T04:13:40.979Z,20.8377
2023-04-11T04:14:42.662Z,20.8623
2023-04-11T04:15:44.300Z,20.9131
2023-04-11T04:16:46.060Z,20.8935
2023-04-11T04:17:47.618Z,20.8512
2023-04-11T04:18:49.249Z,20.8038
2023-04-11T04:19:50.903Z,20.7808
2023-04-11T04:20:52.533Z,20.7542
2023-04-11T04:21:54.210Z,20.8208
2023-04-11T04:22:55.830Z,20.8738
2023-04-11T04:23:57.622Z,20.9169
2023-04-11T04:24:59.445Z,20.8438
2023-04-11T04:26:00.831Z,20.9173
2023-04-11T04:27:02.528Z,20.9850
2023-04-11T04:28:04.081Z,21.0100
2023-04-11T04:29:05.756Z,21.0273
2023-04-11T04:30:07.462Z,21.0069
2023-04-11T04:31:09.078Z,20.9538
2023-04-11T04:32:10.883Z,20.8854
2023-04-11T04:33:12.535Z,20.8654
2023-04-11T04:34:14.007Z,20.8208
2023-04-11T04:35:15.672Z,20.7888
2023-04-11T04:36:17.225Z,20.7815
2023-04-11T04:37:18.940Z,20.8304
2023-04-11T04:38:20.556Z,20.9138
2023-04-11T04:39:22.208Z,20.9331
2023-04-11T04:40:23.913Z,20.8854
2023-04-11T04:41:25.517Z,20.8277
2023-04-11T04:42:27.172Z,20.8485
2023-04-11T04:43:28.925Z,20.8804
2023-04-11T04:44:30.529Z,20.8931
2023-04-11T04:45:32.374Z,20.8531
2023-04-11T04:46:33.828Z,20.8635
2023-04-11T04:47:35.529Z,20.8073
2023-04-11T04:48:37.124Z,20.8708
2023-04-11T04:49:38.762Z,20.8908
2023-04-11T04:50:40.474Z,20.8942
2023-04-11T04:51:42.072Z,20.9112
2023-04-11T04:52:43.666Z,20.8269
2023-04-11T04:53:45.430Z,20.7842
2023-04-11T04:54:47.078Z,20.7762
2023-04-11T04:55:48.736Z,20.8638
2023-04-11T04:56:50.329Z,20.9546
2023-04-11T04:57:52.051Z,20.9727
2023-04-11T04:58:53.575Z,20.9469
2023-04-11T04:59:55.289Z,20.9688
2023-04-11T05:00:56.952Z,21.0362
2023-04-11T05:01:58.639Z,21.1035
2023-04-11T05:03:00.398Z,21.1150
2023-04-11T05:04:02.489Z,21.1046
2023-04-11T05:05:03.623Z,21.0688
2023-04-11T05:06:05.257Z,21.0462
2023-04-11T05:07:06.873Z,21.0262
2023-04-11T05:08:08.506Z,20.9938
2023-04-11T05:09:10.153Z,21.0296
2023-04-11T05:10:11.832Z,21.0954
2023-04-11T05:11:13.798Z,21.1500
2023-04-11T05:12:15.064Z,21.1631
2023-04-11T05:13:16.704Z,21.1631
2023-04-11T05:14:18.388Z,21.1385
2023-04-11T05:15:20.416Z,21.1085
2023-04-11T05:16:21.817Z,21.1896
2023-04-11T05:17:25.182Z,21.2442
2023-04-11T05:18:25.046Z,21.2792
2023-04-11T05:19:26.681Z,21.2923
2023-04-11T05:20:29.250Z,21.2312
2023-04-11T05:21:30.835Z,21.1238
2023-04-11T05:22:31.625Z,21.1931
2023-04-11T05:23:33.372Z,21.2669
2023-04-11T05:24:34.987Z,21.3450
2023-04-11T05:25:36.754Z,21.3888
2023-04-11T05:26:38.966Z,21.3346
2023-04-11T05:27:39.994Z,21.2350
2023-04-11T05:28:41.782Z,21.2754
2023-04-11T05:29:43.345Z,21.3465
2023-04-11T05:30:44.968Z,21.4581
2023-04-11T05:31:46.924Z,21.5104
2023-04-11T05:32:48.345Z,21.4458
2023-04-11T05:33:51.017Z,21.3177
2023-04-11T05:34:51.635Z,21.3392
2023-04-11T05:35:53.324Z,21.4173
2023-04-11T05:36:54.875Z,21.5438
2023-04-11T05:37:56.742Z,21.5712
2023-04-11T05:38:58.260Z,21.5173
2023-04-11T05:39:59.820Z,21.4015
2023-04-11T05:41:01.453Z,21.4146
2023-04-11T05:42:03.151Z,21.5185
2023-04-11T05:43:04.999Z,21.6496
2023-04-11T05:44:06.390Z,21.7315
2023-04-11T05:45:08.089Z,21.6477
2023-04-11T05:46:09.740Z,21.4858
2023-04-11T05:47:11.595Z,21.5015
2023-04-11T05:48:14.227Z,21.5712
2023-04-11T05:49:14.788Z,21.6833
2023-04-11T05:50:16.483Z,21.7542
2023-04-11T05:51:18.194Z,21.6750
2023-04-11T05:52:19.930Z,21.5454
2023-04-11T05:53:21.376Z,21.6008
2023-04-11T05:54:23.044Z,21.7262
2023-04-11T05:55:24.719Z,21.7996
2023-04-11T05:56:26.352Z,21.8081
2023-04-11T05:57:28.337Z,21.7223
2023-04-11T05:58:29.673Z,21.6412
2023-04-11T05:59:31.364Z,21.7288
2023-04-11T06:00:32.958Z,21.8069
2023-04-11T06:01:34.520Z,21.8719
2023-04-11T06:02:36.295Z,21.8596
2023-04-11T06:03:37.912Z,21.7515
2023-04-11T06:04:40.117Z,21.6827
2023-04-11T06:05:41.133Z,21.7696
2023-04-11T06:06:42.752Z,21.8427
2023-04-11T06:07:44.443Z,21.9323
2023-04-11T06:08:46.159Z,21.8792
2023-04-11T06:09:47.834Z,21.7577
2023-04-11T06:10:49.502Z,21.7042
2023-04-11T06:11:51.124Z,21.7912
2023-04-11T06:12:52.780Z,21.8788
2023-04-11T06:13:54.545Z,21.9769
2023-04-11T06:14:56.019Z,21.9242
2023-04-11T06:15:57.873Z,21.7992
2023-04-11T06:16:59.391Z,21.8000
2023-04-11T06:18:01.196Z,21.8869
2023-04-11T06:19:02.649Z,21.9877
2023-04-11T06:20:05.919Z,22.0146
2023-04-11T06:21:06.125Z,21.8946
2023-04-11T06:22:07.758Z,21.8038
2023-04-11T06:23:09.968Z,21.8477
2023-04-11T06:24:10.915Z,21.9419
2023-04-11T06:25:12.602Z,22.0442
2023-04-11T06:26:14.234Z,22.0604
2023-04-11T06:27:16.844Z,21.9185
2023-04-11T06:28:17.642Z,21.8519
2023-04-11T06:29:19.945Z,21.9665
2023-04-11T06:30:21.051Z,22.0588
2023-04-11T06:31:23.569Z,22.1131
2023-04-11T06:32:24.633Z,22.0177
2023-04-11T06:33:25.755Z,21.8962
2023-04-11T06:34:27.677Z,21.8808
2023-04-11T06:35:29.166Z,22.0027
2023-04-11T06:36:30.787Z,22.1112
2023-04-11T06:37:32.512Z,22.1550
2023-04-11T06:38:34.586Z,22.0346
2023-04-11T06:39:35.825Z,21.9181
2023-04-11T06:40:37.452Z,22.0127
2023-04-11T06:41:39.026Z,22.1477
2023-04-11T06:42:41.050Z,22.2558
2023-04-11T06:43:42.539Z,22.2112
2023-04-11T06:44:44.373Z,22.0238
2023-04-11T06:45:45.652Z,22.0215
2023-04-11T06:46:47.488Z,22.1419
2023-04-11T06:47:49.075Z,22.2535
2023-04-11T06:48:50.634Z,22.2758
2023-04-11T06:49:52.240Z,22.1635
2023-04-11T06:50:55.046Z,22.0135
2023-04-11T06:51:55.548Z,22.0381
2023-04-11T06:52:57.299Z,22.1838
2023-04-11T06:53:58.888Z,22.2758
2023-04-11T06:55:00.564Z,22.2946
2023-04-11T06:56:02.164Z,22.2285
2023-04-11T06:57:03.881Z,22.0969
2023-04-11T06:58:05.355Z,22.0938
2023-04-11T06:59:07.301Z,22.2681
2023-04-11T07:00:08.727Z,22.3015
2023-04-11T07:01:10.373Z,22.3042
2023-04-11T07:02:12.112Z,22.2181
2023-04-11T07:03:13.797Z,22.0742
2023-04-11T07:04:15.516Z,22.1327
2023-04-11T07:05:16.981Z,22.2831
2023-04-11T07:06:18.696Z,22.3331
2023-04-11T07:07:20.318Z,22.3604
2023-04-11T07:08:21.894Z,22.2950
2023-04-11T07:09:23.592Z,22.2104
2023-04-11T07:10:25.258Z,22.2085
2023-04-11T07:11:26.950Z,22.2773
2023-04-11T07:12:28.458Z,22.3573
2023-04-11T07:13:30.904Z,22.3946
2023-04-11T07:14:31.904Z,22.3062
2023-04-11T07:15:33.463Z,22.2381
2023-04-11T07:16:35.170Z,22.2323
2023-04-11T07:17:36.967Z,22.3158
2023-04-11T07:18:38.400Z,22.3950
2023-04-11T07:19:40.103Z,22.4435
2023-04-11T07:20:41.725Z,22.3454
2023-04-11T07:21:43.405Z,22.2831
2023-04-11T07:22:45.032Z,22.2881
2023-04-11T07:23:46.661Z,22.3912
2023-04-11T07:24:48.340Z,22.4819
2023-04-11T07:25:49.953Z,22.5054
2023-04-11T07:26:51.798Z,22.4177
2023-04-11T07:27:53.334Z,22.3238
2023-04-11T07:28:54.972Z,22.3369
2023-04-11T07:29:56.830Z,22.4631
2023-04-11T07:30:58.244Z,22.5262
2023-04-11T07:31:59.863Z,22.5277
2023-04-11T07:33:01.505Z,22.4388
2023-04-11T07:34:03.135Z,22.3400
2023-04-11T07:35:05.050Z,22.3377
2023-04-11T07:36:06.499Z,22.4742
2023-04-11T07:37:08.081Z,22.5562
2023-04-11T07:38:09.790Z,22.5742
2023-04-11T07:39:11.460Z,22.5181
2023-04-11T07:40:13.522Z,22.4019
2023-04-11T07:41:14.694Z,22.3235
2023-04-11T07:42:16.311Z,22.3081
2023-04-11T07:43:18.116Z,22.3192
2023-04-11T07:44:19.825Z,22.3581
2023-04-11T07:45:21.365Z,22.3962
2023-04-11T07:46:22.949Z,22.4285
2023-04-11T07:47:24.603Z,22.3773
2023-04-11T07:48:26.344Z,22.3342
2023-04-11T07:49:27.948Z,22.3942
2023-04-11T07:50:29.768Z,22.5131
2023-04-11T07:51:31.154Z,22.5638
2023-04-11T07:52:32.911Z,22.4819
2023-04-11T07:53:34.504Z,22.3438
2023-04-11T07:54:36.101Z,22.3246
2023-04-11T07:55:37.837Z,22.4396
2023-04-11T07:56:40.405Z,22.5831
2023-04-11T07:57:41.087Z,22.6696
2023-04-11T07:58:42.772Z,22.6050
2023-04-11T07:59:44.572Z,22.5177
2023-04-11T08:00:45.991Z,22.4592
2023-04-11T08:01:47.775Z,22.4812
2023-04-11T08:02:50.356Z,22.5288
2023-04-11T08:03:51.076Z,22.5773
2023-04-11T08:04:52.754Z,22.5904
2023-04-11T08:05:54.239Z,22.5073
2023-04-11T08:06:55.896Z,22.4177
2023-04-11T08:07:57.568Z,22.4058
2023-04-11T08:08:59.285Z,22.5023
2023-04-11T08:10:00.848Z,22.6377
2023-04-11T08:11:02.506Z,22.6950
2023-04-11T08:12:04.200Z,22.6088
2023-04-11T08:13:05.856Z,22.4958
2023-04-11T08:14:07.416Z,22.5231
2023-04-11T08:15:09.167Z,22.6846
2023-04-11T08:16:10.837Z,22.8188
2023-04-11T08:17:25.143Z,22.8427
2023-04-11T08:18:14.068Z,22.7767
2023-04-11T08:19:15.698Z,22.7081
2023-04-11T08:20:17.416Z,22.7169
2023-04-11T08:21:19.045Z,22.8108
2023-04-11T08:22:21.022Z,22.9388
2023-04-11T08:23:22.384Z,23.0015
2023-04-11T08:24:23.962Z,22.9315
2023-04-11T08:25:25.630Z,22.8646
2023-04-11T08:26:27.957Z,22.9092
2023-04-11T08:27:28.912Z,23.0942
2023-04-11T08:28:30.714Z,23.2012
2023-04-11T08:29:32.436Z,23.1631
2023-04-11T08:30:33.868Z,22.9842
2023-04-11T08:31:35.456Z,22.8642
2023-04-11T08:32:37.420Z,22.8346
2023-04-11T08:33:38.713Z,22.8946
2023-04-11T08:34:40.389Z,23.0042
2023-04-11T08:35:42.112Z,23.0015
2023-04-11T08:36:43.712Z,22.8535
2023-04-11T08:37:45.938Z,22.7685
2023-04-11T08:38:47.023Z,22.7646
2023-04-11T08:39:48.709Z,22.8715
2023-04-11T08:40:50.532Z,22.9562
2023-04-11T08:41:52.201Z,22.9735
2023-04-11T08:42:53.633Z,22.8388
2023-04-11T08:43:55.572Z,22.7523
2023-04-11T08:44:56.925Z,22.7658
2023-04-11T08:45:58.569Z,22.8023
2023-04-11T08:47:00.283Z,22.8331
2023-04-11T08:48:01.907Z,22.9246
2023-04-11T08:49:03.703Z,22.9708
2023-04-11T08:50:05.091Z,22.8823
2023-04-11T08:51:06.807Z,22.8223
2023-04-11T08:52:08.807Z,22.8762
2023-04-11T08:53:10.055Z,23.0288
2023-04-11T08:54:11.726Z,23.1223
2023-04-11T08:55:13.413Z,23.0792
2023-04-11T08:56:15.023Z,22.8915
2023-04-11T08:57:16.722Z,22.7792
2023-04-11T08:58:18.414Z,22.8604
2023-04-11T08:59:20.052Z,23.0288
2023-04-11T09:00:21.613Z,23.1292
2023-04-11T09:01:23.355Z,23.0623
2023-04-11T09:02:25.109Z,22.8577
2023-04-11T09:03:26.605Z,22.8158
2023-04-11T09:04:29.073Z,22.9735
2023-04-11T09:05:30.202Z,23.1585
2023-04-11T09:06:31.598Z,23.2231
2023-04-11T09:07:33.216Z,23.0619
2023-04-11T09:08:34.830Z,22.8577
2023-04-11T09:09:36.471Z,22.8577
2023-04-11T09:10:38.089Z,22.9846
2023-04-11T09:11:39.764Z,23.1692
2023-04-11T09:12:41.408Z,23.2631
2023-04-11T09:13:43.817Z,23.1342
2023-04-11T09:14:44.694Z,22.9862
2023-04-11T09:15:46.451Z,23.0915
2023-04-11T09:16:47.898Z,23.2623
2023-04-11T09:17:49.546Z,23.4615
2023-04-11T09:18:51.209Z,23.5292
2023-04-11T09:19:52.872Z,23.3723
2023-04-11T09:20:54.584Z,23.2323
2023-04-11T09:21:56.205Z,23.3242
2023-04-11T09:22:57.821Z,23.4996
2023-04-11T09:23:59.427Z,23.7350
2023-04-11T09:25:01.146Z,23.7123
2023-04-11T09:26:02.840Z,23.5265
2023-04-11T09:27:04.454Z,23.4669
2023-04-11T09:28:06.137Z,23.5308
2023-04-11T09:29:07.746Z,23.7231
2023-04-11T09:30:09.397Z,23.8535
2023-04-11T09:31:11.423Z,23.7704
2023-04-11T09:32:13.403Z,23.5538
2023-04-11T09:33:14.359Z,23.5277
2023-04-11T09:34:16.414Z,23.6592
2023-04-11T09:35:18.236Z,23.8408
2023-04-11T09:36:19.330Z,23.9377
2023-04-11T09:37:21.050Z,23.7515
2023-04-11T09:38:22.825Z,23.5196
2023-04-11T09:39:24.296Z,23.5342
2023-04-11T09:40:25.905Z,23.5592
2023-04-11T09:41:27.813Z,23.7469
2023-04-11T09:42:29.311Z,23.7931
2023-04-11T09:43:30.922Z,23.6362
2023-04-11T09:44:32.701Z,23.4454
2023-04-11T09:45:44.212Z,23.4896
2023-04-11T09:46:35.809Z,23.5992
2023-04-11T09:47:37.498Z,23.7835
2023-04-11T09:48:46.502Z,23.8262
2023-04-11T09:49:40.837Z,23.6437
2023-04-11T09:50:42.448Z,23.4558
2023-04-11T09:51:44.025Z,23.4950
2023-04-11T09:52:45.689Z,23.5885
2023-04-11T09:53:47.397Z,23.8196
2023-04-11T09:54:48.980Z,23.8754
2023-04-11T09:55:50.662Z,23.7442
2023-04-11T09:56:52.348Z,23.5523
2023-04-11T09:57:54.918Z,23.6065
2023-04-11T09:58:55.872Z,23.7581
2023-04-11T09:59:58.789Z,23.9258
2023-04-11T10:00:58.814Z,23.9077
2023-04-11T10:02:00.625Z,23.7431
2023-04-11T10:03:02.613Z,23.6446
2023-04-11T10:04:04.589Z,23.7496
2023-04-11T10:05:05.609Z,23.9415
2023-04-11T10:06:07.215Z,24.1538
2023-04-11T10:07:08.842Z,24.1404
2023-04-11T10:08:10.515Z,23.8900
2023-04-11T10:09:12.182Z,23.8038
2023-04-11T10:10:13.783Z,23.9312
2023-04-11T10:11:15.438Z,24.0812
2023-04-11T10:12:17.149Z,24.2508
2023-04-11T10:13:18.840Z,24.1962
2023-04-11T10:14:20.532Z,23.9754
2023-04-11T10:15:21.981Z,23.8519
2023-04-11T10:16:23.821Z,24.0227
2023-04-11T10:17:25.411Z,24.2304
2023-04-11T10:18:27.004Z,24.3765
2023-04-11T10:19:28.686Z,24.3350
2023-04-11T10:20:30.319Z,24.1365
2023-04-11T10:21:32.026Z,24.1058
2023-04-11T10:22:33.576Z,24.2165
2023-04-11T10:23:35.272Z,24.4069
2023-04-11T10:24:36.972Z,24.5385
2023-04-11T10:25:38.559Z,24.3842
2023-04-11T10:26:40.173Z,24.2269
2023-04-11T10:27:41.841Z,24.1850
2023-04-11T10:28:43.726Z,24.3373
2023-04-11T10:29:45.282Z,24.4681
2023-04-11T10:30:46.866Z,24.5446
2023-04-11T10:31:48.634Z,24.4000
2023-04-11T10:32:50.191Z,24.1938
2023-04-11T10:33:51.989Z,24.2012
2023-04-11T10:34:53.556Z,24.3612
2023-04-11T10:35:55.171Z,24.5162
2023-04-11T10:36:56.764Z,24.5315
2023-04-11T10:37:58.990Z,24.3008
2023-04-11T10:39:00.090Z,24.1065
2023-04-11T10:40:01.816Z,24.1515
2023-04-11T10:41:03.470Z,24.2912
2023-04-11T10:42:05.032Z,24.5388
2023-04-11T10:43:07.499Z,24.5085
2023-04-11T10:44:08.362Z,24.2477
2023-04-11T10:45:10.144Z,24.0638
2023-04-11T10:46:11.590Z,24.1335
2023-04-11T10:47:13.593Z,24.2496
2023-04-11T10:48:14.911Z,24.3888
2023-04-11T10:49:16.578Z,24.3385
2023-04-11T10:50:18.655Z,24.1323
2023-04-11T10:51:19.891Z,23.8988
2023-04-11T10:52:21.570Z,23.9404
2023-04-11T10:53:23.217Z,24.0842
2023-04-11T10:54:24.883Z,24.2496
2023-04-11T10:55:27.086Z,24.2250
2023-04-11T10:56:28.184Z,23.9815
2023-04-11T10:57:29.841Z,23.7942
2023-04-11T10:58:31.475Z,23.8288
2023-04-11T10:59:33.097Z,24.0315
2023-04-11T11:00:35.198Z,24.2531
2023-04-11T11:01:42.966Z,24.1946
2023-04-11T11:02:38.425Z,23.9004
2023-04-11T11:03:39.926Z,23.7688
2023-04-11T11:04:41.417Z,23.8031
2023-04-11T11:05:42.997Z,23.9715
2023-04-11T11:06:51.103Z,24.1781
2023-04-11T11:07:46.251Z,24.0942
2023-04-11T11:08:48.397Z,23.8742
2023-04-11T11:09:49.514Z,23.7992
2023-04-11T11:10:51.274Z,23.9254
2023-04-11T11:11:52.818Z,24.1542
2023-04-11T11:12:54.549Z,24.3385
2023-04-11T11:13:56.490Z,24.2823
2023-04-11T11:14:57.814Z,24.0092
2023-04-11T11:15:59.418Z,23.8450
2023-04-11T11:17:01.222Z,23.9073
2023-04-11T11:18:02.756Z,24.0969
2023-04-11T11:19:04.872Z,24.2596
2023-04-11T11:20:06.039Z,24.2138
2023-04-11T11:21:14.170Z,23.9858
2023-04-11T11:22:09.307Z,23.8925
2023-04-11T11:23:14.125Z,23.9812
2023-04-11T11:24:17.585Z,24.1943
2023-04-11T11:25:19.189Z,24.2792
2023-04-11T11:26:20.806Z,24.1381
2023-04-11T11:27:22.413Z,23.8358
2023-04-11T11:28:24.169Z,23.7700
2023-04-11T11:29:25.798Z,23.8592
2023-04-11T11:30:27.357Z,24.0735
2023-04-11T11:31:30.033Z,24.1735
2023-04-11T11:32:30.641Z,23.9815
2023-04-11T11:33:32.396Z,23.7627
2023-04-11T11:34:34.056Z,23.7369
2023-04-11T11:35:35.688Z,23.7850
2023-04-11T11:36:37.249Z,23.9419
2023-04-11T11:37:38.896Z,24.0581
2023-04-11T11:38:41.390Z,23.9185
2023-04-11T11:39:42.238Z,23.7054
2023-04-11T11:40:43.807Z,23.6812
2023-04-11T11:41:46.560Z,23.7550
2023-04-11T11:42:47.140Z,23.8977
2023-04-11T11:43:48.736Z,24.0127
2023-04-11T11:44:50.550Z,23.8258
2023-04-11T11:45:52.138Z,23.5308
2023-04-11T11:46:53.742Z,23.5254
2023-04-11T11:47:55.886Z,23.6727
2023-04-11T11:48:57.288Z,23.8519
2023-04-11T11:49:58.668Z,23.9242
2023-04-11T11:51:01.008Z,23.7469
2023-04-11T11:52:02.099Z,23.4846
2023-04-11T11:53:03.702Z,23.5162
2023-04-11T11:54:05.351Z,23.6958
2023-04-11T11:55:10.860Z,23.9612
2023-04-11T11:56:08.713Z,24.1529
2023-04-11T11:57:10.680Z,24.0885
2023-04-11T11:58:12.153Z,23.9219
2023-04-11T11:59:13.672Z,23.9577
2023-04-11T12:00:15.290Z,24.1365
2023-04-11T12:01:17.196Z,24.2458
2023-04-11T12:02:18.691Z,24.1969
2023-04-11T12:03:20.608Z,23.9977
2023-04-11T12:04:22.189Z,23.9046
2023-04-11T12:05:23.864Z,23.9877
2023-04-11T12:06:25.419Z,24.1488
2023-04-11T12:07:27.010Z,24.2662
2023-04-11T12:08:28.553Z,24.2300
2023-04-11T12:09:30.208Z,24.1485
2023-04-11T12:10:31.894Z,24.1123
2023-04-11T12:11:34.013Z,24.2319
2023-04-11T12:12:35.180Z,24.3388
2023-04-11T12:13:36.856Z,24.3700
2023-04-11T12:14:38.417Z,24.2723
2023-04-11T12:15:40.100Z,24.1612
2023-04-11T12:16:41.798Z,24.1638
2023-04-11T12:17:43.435Z,24.2681
2023-04-11T12:18:45.131Z,24.3592
2023-04-11T12:19:46.776Z,24.3427
2023-04-11T12:20:48.364Z,24.2742
2023-04-11T12:21:50.030Z,24.1985
2023-04-11T12:22:53.674Z,24.2073
2023-04-11T12:23:53.540Z,24.2783
2023-04-11T12:24:54.840Z,24.3619
2023-04-11T12:25:56.668Z,24.3308